createdAt,value
2023-03-28T00:00:18.992Z,2.68
2023-03-28T00:02:46.558Z,2.73
2023-03-28T00:05:14.814Z,2.73
2023-03-28T00:07:42.590Z,2.59
2023-03-28T00:10:10.947Z,2.40
2023-03-28T00:12:38.415Z,2.72
2023-03-28T00:15:07.126Z,2.58
2023-03-28T00:17:36.001Z,2.46
2023-03-28T00:20:05.604Z,2.36
2023-03-28T00:22:34.317Z,2.48
2023-03-28T00:25:02.924Z,2.41
2023-03-28T00:27:30.977Z,2.44
2023-03-28T00:29:59.272Z,2.53
2023-03-28T00:32:26.925Z,2.25
2023-03-28T00:34:56.162Z,2.37
2023-03-28T00:37:24.264Z,2.21
2023-03-28T00:39:51.733Z,2.10
2023-03-28T00:42:20.313Z,2.13
2023-03-28T00:44:49.949Z,2.16
2023-03-28T00:47:27.597Z,2.13
2023-03-28T00:49:59.234Z,2.11
2023-03-28T00:52:30.361Z,2.00
2023-03-28T00:54:58.470Z,2.10
2023-03-28T00:57:26.851Z,2.12
2023-03-28T00:59:54.584Z,2.04
2023-03-28T01:02:22.380Z,2.07
2023-03-28T01:04:53.568Z,2.11
2023-03-28T01:07:22.492Z,2.07
2023-03-28T01:09:50.161Z,2.16
2023-03-28T01:12:18.778Z,2.16
2023-03-28T01:14:46.494Z,2.09
2023-03-28T01:17:15.932Z,2.03
2023-03-28T01:20:02.656Z,2.04
2023-03-28T01:23:05.674Z,2.17
2023-03-28T01:25:56.337Z,2.26
2023-03-28T01:28:36.362Z,2.21
2023-03-28T01:31:48.335Z,2.06
2023-03-28T01:34:53.443Z,2.15
2023-03-28T01:37:26.912Z,2.12
2023-03-28T01:40:05.918Z,2.20
2023-03-28T01:42:38.139Z,2.13
2023-03-28T01:45:14.894Z,2.11
2023-03-28T01:47:44.839Z,2.10
2023-03-28T01:50:18.164Z,1.90
2023-03-28T01:52:49.108Z,1.95
2023-03-28T01:55:20.289Z,1.86
2023-03-28T01:57:52.170Z,1.96
2023-03-28T02:00:22.244Z,1.87
2023-03-28T02:02:54.108Z,1.96
2023-03-28T02:05:23.501Z,2.01
2023-03-28T02:07:53.444Z,1.84
2023-03-28T02:10:24.101Z,1.99
2023-03-28T02:12:55.660Z,1.94
2023-03-28T02:15:24.753Z,2.11
2023-03-28T02:17:58.112Z,2.06
2023-03-28T02:20:27.956Z,2.13
2023-03-28T02:23:00.358Z,2.12
2023-03-28T02:25:27.948Z,2.18
2023-03-28T02:27:57.818Z,2.09
2023-03-28T02:30:25.358Z,2.14
2023-03-28T02:32:53.721Z,2.23
2023-03-28T02:35:26.458Z,2.25
2023-03-28T02:38:03.008Z,2.15
2023-03-28T02:40:38.130Z,2.04
2023-03-28T02:43:27.367Z,2.14
2023-03-28T02:46:10.574Z,2.03
2023-03-28T02:48:49.124Z,2.15
2023-03-28T02:51:23.569Z,2.01
2023-03-28T02:53:59.284Z,1.93
2023-03-28T02:56:31.890Z,2.04
2023-03-28T02:59:02.028Z,2.20
2023-03-28T03:01:29.979Z,2.10
2023-03-28T03:03:58.311Z,2.06
2023-03-28T03:06:26.038Z,2.13
2023-03-28T03:08:54.988Z,1.97
2023-03-28T03:11:22.499Z,2.01
2023-03-28T03:13:49.966Z,2.06
2023-03-28T03:16:18.463Z,2.21
2023-03-28T03:18:46.297Z,2.19
2023-03-28T03:21:13.773Z,2.25
2023-03-28T03:23:41.227Z,2.26
2023-03-28T03:26:10.788Z,2.02
2023-03-28T03:28:39.586Z,1.73
2023-03-28T03:31:08.060Z,1.79
2023-03-28T03:33:37.601Z,1.70
2023-03-28T03:36:05.875Z,1.78
2023-03-28T03:38:33.392Z,1.72
2023-03-28T03:41:01.188Z,1.78
2023-03-28T03:43:30.083Z,1.70
2023-03-28T03:46:00.263Z,1.76
2023-03-28T03:48:27.929Z,1.69
2023-03-28T03:50:55.550Z,1.32
2023-03-28T03:53:22.996Z,1.25
2023-03-28T03:55:50.496Z,1.23
2023-03-28T03:58:20.348Z,1.21
2023-03-28T04:00:49.628Z,1.42
2023-03-28T04:03:23.876Z,1.31
2023-03-28T04:05:54.858Z,1.15
2023-03-28T04:08:22.347Z,1.16
2023-03-28T04:10:50.309Z,1.30
2023-03-28T04:13:17.866Z,1.30
2023-03-28T04:15:47.423Z,1.43
2023-03-28T04:18:17.931Z,1.37
2023-03-28T04:20:47.244Z,1.29
2023-03-28T04:23:18.349Z,1.23
2023-03-28T04:25:45.870Z,1.29
2023-03-28T04:28:13.352Z,1.29
2023-03-28T04:30:41.585Z,1.29
2023-03-28T04:33:09.102Z,1.10
2023-03-28T04:35:38.032Z,0.93
2023-03-28T04:38:05.885Z,0.94
2023-03-28T04:40:33.448Z,1.06
2023-03-28T04:43:00.960Z,0.90
2023-03-28T04:45:28.564Z,0.67
2023-03-28T04:47:56.128Z,0.83
2023-03-28T04:50:23.960Z,0.61
2023-03-28T04:52:52.948Z,0.63
2023-03-28T04:55:20.421Z,0.66
2023-03-28T04:57:48.094Z,0.70
2023-03-28T05:00:16.818Z,0.55
2023-03-28T05:02:44.746Z,0.54
2023-03-28T05:05:12.374Z,0.49
2023-03-28T05:07:39.908Z,0.33
2023-03-28T05:10:11.263Z,0.31
2023-03-28T05:12:40.504Z,0.33
2023-03-28T05:15:08.766Z,0.22
2023-03-28T05:17:37.105Z,0.46
2023-03-28T05:20:09.256Z,0.32
2023-03-28T05:22:37.029Z,0.22
2023-03-28T05:25:04.632Z,0.17
2023-03-28T05:27:33.618Z,0.06
2023-03-28T05:30:01.363Z,0.07
2023-03-28T05:32:29.074Z,0.27
2023-03-28T05:34:56.691Z,0.51
2023-03-28T05:37:24.416Z,0.59
2023-03-28T05:39:56.116Z,0.47
2023-03-28T05:42:23.677Z,0.52
2023-03-28T05:44:52.547Z,0.78
2023-03-28T05:47:20.305Z,0.83
2023-03-28T05:49:47.944Z,0.67
2023-03-28T05:52:15.742Z,0.57
2023-03-28T05:54:50.562Z,0.62
2023-03-28T05:57:20.375Z,0.75
2023-03-28T05:59:48.553Z,0.77
2023-03-28T06:02:20.090Z,0.49
2023-03-28T06:04:48.594Z,0.34
2023-03-28T06:07:16.582Z,0.63
2023-03-28T06:09:44.064Z,0.44
2023-03-28T06:12:11.533Z,0.73
2023-03-28T06:14:39.029Z,0.81
2023-03-28T06:17:07.905Z,0.97
2023-03-28T06:19:36.871Z,1.00
2023-03-28T06:22:04.412Z,1.19
2023-03-28T06:24:31.933Z,1.19
2023-03-28T06:26:59.640Z,1.15
2023-03-28T06:29:27.222Z,1.11
2023-03-28T06:31:54.857Z,1.25
2023-03-28T06:34:22.527Z,1.31
2023-03-28T06:36:51.445Z,1.47
2023-03-28T06:39:19.018Z,1.43
2023-03-28T06:41:46.487Z,1.64
2023-03-28T06:44:14.013Z,1.61
2023-03-28T06:46:41.523Z,1.71
2023-03-28T06:49:09.130Z,1.71
2023-03-28T06:51:36.672Z,1.76
2023-03-28T06:54:05.544Z,1.84
2023-03-28T06:56:33.425Z,1.88
2023-03-28T06:59:00.898Z,2.02
2023-03-28T07:01:28.507Z,2.22
2023-03-28T07:03:59.243Z,2.34
2023-03-28T07:06:27.707Z,2.29
2023-03-28T07:08:55.337Z,2.37
2023-03-28T07:11:24.247Z,2.45
2023-03-28T07:13:51.822Z,2.54
2023-03-28T07:16:19.314Z,2.59
2023-03-28T07:18:46.826Z,2.69
2023-03-28T07:21:16.051Z,2.67
2023-03-28T07:23:44.680Z,2.68
2023-03-28T07:26:13.204Z,2.72
2023-03-28T07:28:42.463Z,2.72
2023-03-28T07:31:10.027Z,2.70
2023-03-28T07:33:38.670Z,2.67
2023-03-28T07:36:11.601Z,2.78
2023-03-28T07:38:39.649Z,2.86
2023-03-28T07:41:07.894Z,2.95
2023-03-28T07:43:35.917Z,3.03
2023-03-28T07:46:06.834Z,3.05
2023-03-28T07:48:34.950Z,3.00
2023-03-28T07:51:02.664Z,3.04
2023-03-28T07:53:30.285Z,3.10
2023-03-28T07:55:57.745Z,3.30
2023-03-28T07:58:25.487Z,3.34
2023-03-28T08:00:57.407Z,3.33
2023-03-28T08:03:28.167Z,3.54
2023-03-28T08:05:55.864Z,3.67
2023-03-28T08:08:23.443Z,3.61
2023-03-28T08:10:51.404Z,3.61
2023-03-28T08:13:20.782Z,3.72
2023-03-28T08:15:53.613Z,3.77
2023-03-28T08:18:22.577Z,3.87
2023-03-28T08:20:53.209Z,3.98
2023-03-28T08:23:20.667Z,4.08
2023-03-28T08:25:48.111Z,4.08
2023-03-28T08:28:15.613Z,4.05
2023-03-28T08:30:43.081Z,4.06
2023-03-28T08:33:10.947Z,4.19
2023-03-28T08:35:38.929Z,4.24
2023-03-28T08:38:10.523Z,4.43
2023-03-28T08:40:41.296Z,4.31
2023-03-28T08:43:22.983Z,4.37
2023-03-28T08:45:52.464Z,4.46
2023-03-28T08:48:23.304Z,4.64
2023-03-28T08:50:53.194Z,4.79
2023-03-28T08:53:30.270Z,4.90
2023-03-28T08:55:58.542Z,4.93
2023-03-28T08:58:28.580Z,4.84
2023-03-28T09:00:56.268Z,4.87
2023-03-28T09:03:25.163Z,4.98
2023-03-28T09:05:54.710Z,4.96
2023-03-28T09:08:41.654Z,5.02
2023-03-28T09:11:17.579Z,5.14
2023-03-28T09:13:51.356Z,5.27
2023-03-28T09:16:29.150Z,5.35
2023-03-28T09:19:10.418Z,5.46
2023-03-28T09:21:46.904Z,5.20
2023-03-28T09:24:28.484Z,5.32
2023-03-28T09:27:02.324Z,5.39
2023-03-28T09:29:32.304Z,5.44
2023-03-28T09:32:04.284Z,5.47
2023-03-28T09:34:38.017Z,5.46
2023-03-28T09:37:12.619Z,5.51
2023-03-28T09:39:43.845Z,5.71
2023-03-28T09:42:16.745Z,5.62
2023-03-28T09:44:54.198Z,5.62
2023-03-28T09:47:22.728Z,5.65
2023-03-28T09:49:56.467Z,5.86
2023-03-28T09:52:30.580Z,5.83
2023-03-28T09:55:00.415Z,6.02
2023-03-28T09:57:27.909Z,6.16
2023-03-28T09:59:58.191Z,6.20
2023-03-28T10:02:28.721Z,6.27
2023-03-28T10:04:56.663Z,5.90
2023-03-28T10:07:33.061Z,6.19
2023-03-28T10:10:14.606Z,6.18
2023-03-28T10:12:43.572Z,6.35
2023-03-28T10:15:31.049Z,6.40
2023-03-28T10:18:00.782Z,6.53
2023-03-28T10:20:28.438Z,6.67
2023-03-28T10:22:57.092Z,6.63
2023-03-28T10:25:34.735Z,6.79
2023-03-28T10:28:03.990Z,6.99
2023-03-28T10:30:32.706Z,7.07
2023-03-28T10:33:14.974Z,7.15
2023-03-28T10:35:45.671Z,7.09
2023-03-28T10:38:16.250Z,7.05
2023-03-28T10:40:52.154Z,6.93
2023-03-28T10:43:19.659Z,7.28
2023-03-28T10:45:50.839Z,7.31
2023-03-28T10:48:21.612Z,7.05
2023-03-28T10:50:50.329Z,7.27
2023-03-28T10:53:29.436Z,7.31
2023-03-28T10:56:07.304Z,7.06
2023-03-28T10:58:37.142Z,7.21
2023-03-28T11:01:10.521Z,7.30
2023-03-28T11:03:48.920Z,7.15
2023-03-28T11:06:20.059Z,7.35
2023-03-28T11:08:57.366Z,7.60
2023-03-28T11:11:48.874Z,7.59
2023-03-28T11:14:24.006Z,7.56
2023-03-28T11:16:56.234Z,7.74
2023-03-28T11:19:35.709Z,7.85
2023-03-28T11:22:07.836Z,7.66
2023-03-28T11:24:40.559Z,7.75
2023-03-28T11:27:16.313Z,7.58
2023-03-28T11:29:47.530Z,7.33
2023-03-28T11:32:18.372Z,7.52
2023-03-28T11:34:51.869Z,7.55
2023-03-28T11:37:22.622Z,7.57
2023-03-28T11:39:53.741Z,7.67
2023-03-28T11:42:27.691Z,7.86
2023-03-28T11:45:01.765Z,7.87
2023-03-28T11:47:33.802Z,7.97
2023-03-28T11:50:08.024Z,7.91
2023-03-28T11:52:38.723Z,7.70
2023-03-28T11:55:15.197Z,7.73
2023-03-28T11:57:52.180Z,8.04
2023-03-28T12:00:33.369Z,8.12
2023-03-28T12:03:09.983Z,8.21
2023-03-28T12:05:40.482Z,8.14
2023-03-28T12:08:11.076Z,8.38
2023-03-28T12:10:40.279Z,8.21
2023-03-28T12:13:13.600Z,8.14
2023-03-28T12:15:46.285Z,8.29
2023-03-28T12:18:17.334Z,8.18
2023-03-28T12:20:49.516Z,8.34
2023-03-28T12:23:24.135Z,7.99
2023-03-28T12:25:54.998Z,8.07
2023-03-28T12:28:28.385Z,8.22
2023-03-28T12:31:02.189Z,8.01
2023-03-28T12:33:38.024Z,8.38
2023-03-28T12:36:08.534Z,8.47
2023-03-28T12:38:40.075Z,8.28
2023-03-28T12:41:09.205Z,8.42
2023-03-28T12:43:43.419Z,8.27
2023-03-28T12:46:13.823Z,8.53
2023-03-28T12:48:43.585Z,8.54
2023-03-28T12:51:16.075Z,8.52
2023-03-28T12:53:48.402Z,8.64
2023-03-28T12:56:16.791Z,8.55
2023-03-28T12:58:48.818Z,8.57
2023-03-28T13:01:35.668Z,8.55
2023-03-28T13:04:11.149Z,8.72
2023-03-28T13:06:47.314Z,8.87
2023-03-28T13:09:32.939Z,9.03
2023-03-28T13:12:05.865Z,8.97
2023-03-28T13:14:40.769Z,9.08
2023-03-28T13:17:26.351Z,8.97
2023-03-28T13:19:55.763Z,9.02
2023-03-28T13:22:29.632Z,9.12
2023-03-28T13:25:21.021Z,9.33
2023-03-28T13:27:49.403Z,9.01
2023-03-28T13:30:20.009Z,9.18
2023-03-28T13:32:50.457Z,9.32
2023-03-28T13:35:40.253Z,9.31
2023-03-28T13:38:24.895Z,9.54
2023-03-28T13:40:55.658Z,9.55
2023-03-28T13:43:26.028Z,9.56
2023-03-28T13:45:58.428Z,9.74
2023-03-28T13:48:31.494Z,9.75
2023-03-28T13:51:00.735Z,9.62
2023-03-28T13:53:40.892Z,9.56
2023-03-28T13:56:19.850Z,9.51
2023-03-28T13:58:49.915Z,9.74
2023-03-28T14:01:20.673Z,9.71
2023-03-28T14:03:48.998Z,9.58
2023-03-28T14:06:22.370Z,9.25
2023-03-28T14:08:50.927Z,9.31
2023-03-28T14:11:21.020Z,9.15
2023-03-28T14:13:49.155Z,9.33
2023-03-28T14:16:19.197Z,9.29
2023-03-28T14:18:48.181Z,9.34
2023-03-28T14:21:15.854Z,9.18
2023-03-28T14:23:54.342Z,9.51
2023-03-28T14:26:23.458Z,9.61
2023-03-28T14:28:51.966Z,9.40
2023-03-28T14:31:30.804Z,9.29
2023-03-28T14:33:59.353Z,9.22
2023-03-28T14:36:30.642Z,9.25
2023-03-28T14:39:13.349Z,9.18
2023-03-28T14:41:42.282Z,8.89
2023-03-28T14:44:09.793Z,9.05
2023-03-28T14:46:38.647Z,8.98
2023-03-28T14:49:09.929Z,9.31
2023-03-28T14:51:42.027Z,9.43
2023-03-28T14:54:15.538Z,9.66
2023-03-28T14:56:44.177Z,9.84
2023-03-28T14:59:16.277Z,10.01
2023-03-28T15:01:47.590Z,9.82
2023-03-28T15:04:16.096Z,9.86
2023-03-28T15:06:43.576Z,9.77
2023-03-28T15:09:16.189Z,9.73
2023-03-28T15:11:44.452Z,9.94
2023-03-28T15:14:15.354Z,10.04
2023-03-28T15:16:45.779Z,10.19
2023-03-28T15:19:18.661Z,10.20
2023-03-28T15:21:52.809Z,10.27
2023-03-28T15:24:20.552Z,9.79
2023-03-28T15:26:50.955Z,9.66
2023-03-28T15:29:20.201Z,9.89
2023-03-28T15:31:49.656Z,9.89
2023-03-28T15:34:21.512Z,9.77
2023-03-28T15:36:57.126Z,9.70
2023-03-28T15:39:26.164Z,9.62
2023-03-28T15:41:55.584Z,9.69
2023-03-28T15:44:27.719Z,9.69
2023-03-28T15:46:59.420Z,9.47
2023-03-28T15:49:27.080Z,9.51
2023-03-28T15:51:56.428Z,9.37
2023-03-28T15:54:31.187Z,9.26
2023-03-28T15:57:02.254Z,9.02
2023-03-28T15:59:33.895Z,8.96
2023-03-28T16:02:29.263Z,9.13
2023-03-28T16:05:01.740Z,9.21
2023-03-28T16:07:35.108Z,8.99
2023-03-28T16:10:02.658Z,9.06
2023-03-28T16:12:30.154Z,9.29
2023-03-28T16:14:57.616Z,9.22
2023-03-28T16:17:28.676Z,9.18
2023-03-28T16:19:56.466Z,9.04
2023-03-28T16:22:24.293Z,9.21
2023-03-28T16:24:52.924Z,8.99
2023-03-28T16:27:21.437Z,8.87
2023-03-28T16:29:49.246Z,8.81
2023-03-28T16:32:17.224Z,8.90
2023-03-28T16:34:46.085Z,8.96
2023-03-28T16:37:13.617Z,8.88
2023-03-28T16:39:41.407Z,8.63
2023-03-28T16:42:09.016Z,8.72
2023-03-28T16:44:36.725Z,8.87
2023-03-28T16:47:04.289Z,8.90
2023-03-28T16:49:32.075Z,8.86
2023-03-28T16:52:01.084Z,8.67
2023-03-28T16:54:28.749Z,8.59
2023-03-28T16:56:56.317Z,8.53
2023-03-28T16:59:24.000Z,8.66
2023-03-28T17:01:52.092Z,8.63
2023-03-28T17:04:19.600Z,8.63
2023-03-28T17:06:47.151Z,8.57
2023-03-28T17:09:16.077Z,8.36
2023-03-28T17:11:43.693Z,8.38
2023-03-28T17:14:11.341Z,8.39
2023-03-28T17:16:40.275Z,8.49
2023-03-28T17:19:08.168Z,8.50
2023-03-28T17:21:35.828Z,8.39
2023-03-28T17:24:03.647Z,8.41
2023-03-28T17:26:32.425Z,8.32
2023-03-28T17:28:59.868Z,8.10
2023-03-28T17:31:27.773Z,8.05
2023-03-28T17:33:55.506Z,7.97
2023-03-28T17:36:24.799Z,7.89
2023-03-28T17:38:53.854Z,8.00
2023-03-28T17:41:23.012Z,7.91
2023-03-28T17:43:52.199Z,7.96
2023-03-28T17:46:19.693Z,7.96
2023-03-28T17:48:47.137Z,7.92
2023-03-28T17:51:15.493Z,7.95
2023-03-28T17:53:46.451Z,7.82
2023-03-28T17:56:14.467Z,7.81
2023-03-28T17:58:42.102Z,7.83
2023-03-28T18:01:12.606Z,7.91
2023-03-28T18:03:40.827Z,7.87
2023-03-28T18:06:08.988Z,7.87
2023-03-28T18:08:36.660Z,7.92
2023-03-28T18:11:07.211Z,7.90
2023-03-28T18:13:35.364Z,7.82
2023-03-28T18:16:04.335Z,7.78
2023-03-28T18:18:34.057Z,7.89
2023-03-28T18:21:01.547Z,7.88
2023-03-28T18:23:28.965Z,7.79
2023-03-28T18:25:56.523Z,7.86
2023-03-28T18:28:24.259Z,7.76
2023-03-28T18:30:52.105Z,7.83
2023-03-28T18:33:19.895Z,7.77
2023-03-28T18:35:48.984Z,7.73
2023-03-28T18:38:16.590Z,7.83
2023-03-28T18:40:44.308Z,7.77
2023-03-28T18:43:11.913Z,7.59
2023-03-28T18:45:39.422Z,7.64
2023-03-28T18:48:08.771Z,7.64
2023-03-28T18:50:36.688Z,7.71
2023-03-28T18:53:05.848Z,7.70
2023-03-28T18:55:33.383Z,7.68
2023-03-28T18:58:04.383Z,7.64
2023-03-28T19:00:32.262Z,7.60
2023-03-28T19:02:59.849Z,7.60
2023-03-28T19:05:27.376Z,7.59
2023-03-28T19:07:55.474Z,7.56
2023-03-28T19:10:24.274Z,7.57
2023-03-28T19:12:53.107Z,7.62
2023-03-28T19:15:21.987Z,7.62
2023-03-28T19:17:49.845Z,7.62
2023-03-28T19:20:17.393Z,7.60
2023-03-28T19:22:44.848Z,7.60
2023-03-28T19:25:12.481Z,7.62
2023-03-28T19:27:43.620Z,7.65
2023-03-28T19:30:11.550Z,7.63
2023-03-28T19:32:39.148Z,7.62
2023-03-28T19:35:07.696Z,7.57
2023-03-28T19:37:35.168Z,7.59
2023-03-28T19:40:08.841Z,7.51
2023-03-28T19:42:37.489Z,7.50
2023-03-28T19:45:07.914Z,7.50
2023-03-28T19:47:35.424Z,7.53
2023-03-28T19:50:04.247Z,7.53
2023-03-28T19:52:31.797Z,7.44
2023-03-28T19:54:59.297Z,7.47
2023-03-28T19:57:26.949Z,7.40
2023-03-28T19:59:54.474Z,7.38
2023-03-28T20:02:23.303Z,7.39
2023-03-28T20:04:50.832Z,7.43
2023-03-28T20:07:19.258Z,7.42
2023-03-28T20:09:49.002Z,7.38
2023-03-28T20:12:16.632Z,7.47
2023-03-28T20:14:44.112Z,7.64
2023-03-28T20:17:12.237Z,7.55
2023-03-28T20:19:41.028Z,7.66
2023-03-28T20:22:08.479Z,7.57
2023-03-28T20:24:35.990Z,7.54
2023-03-28T20:27:03.567Z,7.44
2023-03-28T20:29:31.835Z,7.61
2023-03-28T20:32:00.543Z,7.56
2023-03-28T20:34:28.287Z,7.52
2023-03-28T20:36:57.192Z,7.52
2023-03-28T20:39:27.657Z,7.32
2023-03-28T20:41:55.480Z,7.59
2023-03-28T20:44:22.923Z,7.50
2023-03-28T20:46:50.403Z,7.57
2023-03-28T20:49:20.237Z,7.63
2023-03-28T20:51:50.234Z,7.67
2023-03-28T20:54:21.663Z,7.52
2023-03-28T20:56:50.103Z,7.59
2023-03-28T20:59:17.814Z,7.52
2023-03-28T21:01:47.731Z,7.34
2023-03-28T21:04:15.416Z,7.22
2023-03-28T21:06:44.867Z,7.26
2023-03-28T21:09:16.010Z,7.36
2023-03-28T21:11:45.311Z,7.30
2023-03-28T21:14:14.555Z,7.30
2023-03-28T21:16:42.247Z,7.23
2023-03-28T21:19:09.815Z,7.41
2023-03-28T21:21:37.462Z,7.41
2023-03-28T21:24:07.094Z,7.28
2023-03-28T21:26:35.820Z,7.30
2023-03-28T21:29:04.834Z,7.26
2023-03-28T21:31:32.350Z,7.20
2023-03-28T21:34:00.857Z,7.31
2023-03-28T21:36:28.755Z,7.41
2023-03-28T21:38:56.987Z,7.45
2023-03-28T21:41:24.588Z,7.52
2023-03-28T21:43:53.622Z,7.51
2023-03-28T21:46:22.605Z,7.50
2023-03-28T21:48:50.253Z,7.46
2023-03-28T21:51:17.919Z,7.37
2023-03-28T21:53:45.670Z,7.43
2023-03-28T21:56:14.750Z,7.47
2023-03-28T21:58:42.408Z,7.39
2023-03-28T22:01:12.820Z,7.39
2023-03-28T22:03:41.873Z,7.39
2023-03-28T22:06:10.128Z,7.45
2023-03-28T22:08:37.755Z,7.43
2023-03-28T22:11:13.322Z,7.42
2023-03-28T22:13:41.064Z,7.36
2023-03-28T22:16:12.896Z,7.45
2023-03-28T22:18:49.812Z,7.09
2023-03-28T22:21:17.677Z,7.08
2023-03-28T22:23:47.406Z,6.85
2023-03-28T22:26:15.657Z,6.90
2023-03-28T22:28:43.089Z,6.87
2023-03-28T22:31:11.209Z,6.79
2023-03-28T22:33:39.161Z,6.84
2023-03-28T22:36:09.451Z,6.72
2023-03-28T22:38:37.474Z,6.62
2023-03-28T22:41:05.277Z,6.73
2023-03-28T22:43:33.378Z,6.69
2023-03-28T22:46:00.840Z,6.74
2023-03-28T22:48:29.861Z,6.81
2023-03-28T22:50:58.693Z,6.80
2023-03-28T22:53:27.944Z,6.84
2023-03-28T22:55:57.522Z,6.63
2023-03-28T22:58:25.210Z,6.62
2023-03-28T23:00:54.717Z,6.64
2023-03-28T23:03:22.232Z,6.70
2023-03-28T23:05:51.449Z,6.66
2023-03-28T23:08:19.184Z,6.58
2023-03-28T23:10:48.848Z,6.69
2023-03-28T23:13:16.577Z,6.66
2023-03-28T23:15:44.683Z,6.73
2023-03-28T23:18:12.193Z,6.94
2023-03-28T23:20:39.636Z,6.79
2023-03-28T23:23:08.794Z,6.90
2023-03-28T23:25:37.003Z,6.89
2023-03-28T23:28:05.874Z,6.88
2023-03-28T23:30:33.395Z,6.73
2023-03-28T23:33:01.823Z,6.73
2023-03-28T23:35:29.473Z,6.85
2023-03-28T23:37:56.957Z,6.81
2023-03-28T23:40:24.477Z,6.72
2023-03-28T23:42:51.917Z,6.72
2023-03-28T23:45:20.714Z,6.71
2023-03-28T23:47:48.242Z,6.69
2023-03-28T23:50:15.919Z,6.66
2023-03-28T23:52:43.385Z,6.72
2023-03-28T23:55:10.836Z,6.69
2023-03-28T23:57:38.296Z,6.71
